Good Samaritan Village, Nebraska
Current Conditions -  °F | °C
As of 3:53 AM on Thursday 29 Jan 2015 (Local Time) from KHSI Reporting Station
Broken Clouds Broken Clouds  
Wind Chill: 25°   Ceiling: 2300
Heat Index: 37°   Visibility: 10mi
Dew Point: 27°   Wind: 25mph
Humidity: 67%   Direction: 350°N
Pressure: 30.23"   Gusts: 40mph
Location:  40.5551°N, 98.369°W
Report Text: KHSI 290953Z AUTO 35022G35KT 10SM BKN023 03/M03 A3023 RMK AO2 PK WND 35035/0945 SLP236 T00281028 $
Loading
Personal Weather Stations






























Interactive Weather Map New forecast layout! Learn more

10-Day Weather Forecast

Advertisements
Track Severe Weather on mobile